Time;durP1;ratioP1;P1;durP2;ratioP2;P2;SDS_P1;SDS_P2;PMS_P1;PMS_P2;Temp;Humidity;BMP_temperature;BMP_pressure;BME280_temperature;BME280_humidity;BME280_pressure;Samples;Min_cycle;Max_cycle;Signal;HPM_P1;HPM_P2
2023/07/16 00:00:10;;;;;;;3.00;2.45;;;;;;;;;;5003068;28;20022;-74
2023/07/16 00:02:37;;;;;;;2.38;2.17;;;;;;;;;;4999753;28;20535;-74
2023/07/16 00:05:03;;;;;;;2.25;2.03;;;;;;;;;;5000561;28;20536;-74
2023/07/16 00:07:28;;;;;;;3.85;2.78;;;;;;;;;;4999120;28;20022;-74
2023/07/16 00:09:54;;;;;;;3.67;2.25;;;;;;;;;;5001566;28;20110;-75
2023/07/16 00:12:19;;;;;;;3.45;2.50;;;;;;;;;;5001366;28;20394;-75
2023/07/16 00:14:44;;;;;;;2.97;2.35;;;;;;;;;;4995212;28;20059;-75
2023/07/16 00:17:10;;;;;;;3.45;2.70;;;;;;;;;;4996747;28;20423;-74
2023/07/16 00:19:35;;;;;;;3.80;2.33;;;;;;;;;;5002813;28;20080;-74
2023/07/16 00:22:01;;;;;;;2.78;2.30;;;;;;;;;;4996088;28;20029;-75
2023/07/16 00:24:26;;;;;;;2.88;2.10;;;;;;;;;;5004786;28;20029;-75
2023/07/16 00:26:52;;;;;;;2.92;2.50;;;;;;;;;;5001913;28;20040;-75
2023/07/16 00:29:18;;;;;;;4.53;2.78;;;;;;;;;;4999073;28;20022;-75
2023/07/16 00:31:43;;;;;;;2.97;2.42;;;;;;;;;;4999840;28;20569;-76
2023/07/16 00:34:09;;;;;;;3.33;2.50;;;;;;;;;;5001044;28;20467;-76
2023/07/16 00:36:34;;;;;;;3.03;2.60;;;;;;;;;;4998818;28;20133;-76
2023/07/16 00:38:59;;;;;;;3.38;2.22;;;;;;;;;;5004054;28;20033;-76
2023/07/16 00:41:25;;;;;;;2.50;2.30;;;;;;;;;;5005799;28;20378;-75
2023/07/16 00:43:50;;;;;;;2.10;1.90;;;;;;;;;;5001507;28;20022;-75
2023/07/16 00:46:16;;;;;;;3.33;2.22;;;;;;;;;;5000590;28;20058;-75
2023/07/16 00:48:43;;;;;;;2.28;1.77;;;;;;;;;;5000919;28;20032;-76
2023/07/16 00:51:08;;;;;;;3.47;2.60;;;;;;;;;;5002095;28;20550;-76
2023/07/16 00:53:34;;;;;;;3.17;2.55;;;;;;;;;;4998832;28;20026;-76
2023/07/16 00:56:00;;;;;;;2.28;2.08;;;;;;;;;;5001089;28;20785;-76
2023/07/16 00:58:25;;;;;;;3.05;2.30;;;;;;;;;;5003052;28;20022;-75
2023/07/16 01:00:51;;;;;;;2.78;2.40;;;;;;;;;;5000799;28;20082;-75
2023/07/16 01:03:17;;;;;;;2.72;2.47;;;;;;;;;;5000806;28;20399;-76
2023/07/16 01:06:06;;;;;;;2.38;2.17;;;;;;;;;;5004872;28;20068;-76
2023/07/16 01:08:45;;;;;;;2.65;2.45;;;;;;;;;;5002739;28;20045;-76
2023/07/16 01:11:11;;;;;;;2.53;2.33;;;;;;;;;;5001381;28;20071;-76
2023/07/16 01:13:38;;;;;;;2.88;2.50;;;;;;;;;;5004260;28;20084;-77
2023/07/16 01:16:04;;;;;;;3.75;3.05;;;;;;;;;;4995976;28;20097;-77
2023/07/16 01:18:29;;;;;;;6.22;3.70;;;;;;;;;;5001534;28;20763;-77
2023/07/16 01:20:55;;;;;;;3.13;2.70;;;;;;;;;;5004385;28;20080;-76
2023/07/16 01:23:52;;;;;;;6.70;3.97;;;;;;;;;;4998975;28;20030;-76
2023/07/16 01:26:21;;;;;;;3.90;3.03;;;;;;;;;;4998994;28;20037;-76
2023/07/16 01:29:20;;;;;;;3.08;2.60;;;;;;;;;;4999901;28;20030;-77
2023/07/16 01:31:49;;;;;;;6.00;3.88;;;;;;;;;;5003388;28;20515;-75
2023/07/16 01:34:15;;;;;;;3.08;2.70;;;;;;;;;;5002716;28;20116;-78
2023/07/16 01:36:41;;;;;;;2.25;2.05;;;;;;;;;;5002246;28;20769;-75
2023/07/16 01:39:07;;;;;;;3.25;2.03;;;;;;;;;;4998173;28;20026;-75
2023/07/16 01:41:32;;;;;;;2.78;2.20;;;;;;;;;;5002109;28;20028;-75
2023/07/16 01:43:57;;;;;;;3.00;2.70;;;;;;;;;;5002115;28;20534;-75
2023/07/16 01:46:23;;;;;;;3.00;2.70;;;;;;;;;;5005551;28;20033;-76
2023/07/16 01:48:48;;;;;;;2.95;2.33;;;;;;;;;;5006983;28;20491;-74
2023/07/16 01:51:14;;;;;;;3.67;2.42;;;;;;;;;;5010151;28;20021;-76
2023/07/16 01:53:42;;;;;;;5.20;2.17;;;;;;;;;;4999974;28;20110;-76
2023/07/16 01:56:08;;;;;;;2.53;2.28;;;;;;;;;;4997940;28;20024;-76
2023/07/16 01:58:33;;;;;;;2.75;2.25;;;;;;;;;;4998998;28;20101;-77
2023/07/16 02:00:59;;;;;;;2.65;2.20;;;;;;;;;;4997314;28;20121;-78
2023/07/16 02:03:24;;;;;;;1.88;1.75;;;;;;;;;;5000036;28;20067;-77
2023/07/16 02:05:49;;;;;;;2.30;2.10;;;;;;;;;;5001780;28;20061;-78
2023/07/16 02:08:17;;;;;;;4.30;2.47;;;;;;;;;;5000514;28;20025;-77
2023/07/16 02:10:42;;;;;;;2.90;1.98;;;;;;;;;;4999274;28;20034;-77
2023/07/16 02:13:07;;;;;;;3.03;2.30;;;;;;;;;;5007425;28;20018;-79
2023/07/16 02:15:33;;;;;;;2.38;2.10;;;;;;;;;;5001120;28;20625;-76
2023/07/16 02:17:58;;;;;;;3.25;2.20;;;;;;;;;;5002203;28;20101;-78
2023/07/16 02:20:23;;;;;;;1.88;1.73;;;;;;;;;;4998002;28;20658;-76
2023/07/16 02:22:49;;;;;;;2.70;1.90;;;;;;;;;;4996950;28;20022;-77
2023/07/16 02:25:14;;;;;;;2.38;2.17;;;;;;;;;;5003625;28;20014;-76
2023/07/16 02:27:40;;;;;;;2.45;1.90;;;;;;;;;;4994922;28;20049;-77
2023/07/16 02:30:06;;;;;;;2.05;1.90;;;;;;;;;;5002653;28;20670;-76
2023/07/16 02:32:32;;;;;;;3.28;2.10;;;;;;;;;;5000307;28;20038;-76
2023/07/16 02:34:58;;;;;;;2.60;1.73;;;;;;;;;;5000802;28;20040;-80
2023/07/16 02:37:23;;;;;;;2.63;2.10;;;;;;;;;;4995834;28;20418;-78
2023/07/16 02:39:48;;;;;;;2.03;1.90;;;;;;;;;;5003135;28;20037;-78
2023/07/16 02:42:14;;;;;;;2.13;1.90;;;;;;;;;;5001905;28;20101;-78
2023/07/16 02:44:44;;;;;;;1.70;1.60;;;;;;;;;;5001055;28;20474;-78
2023/07/16 02:47:10;;;;;;;3.38;1.85;;;;;;;;;;4994844;28;20032;-78
2023/07/16 02:49:35;;;;;;;2.58;2.03;;;;;;;;;;5001391;28;20046;-78
2023/07/16 02:52:01;;;;;;;2.20;2.00;;;;;;;;;;4995314;28;20450;-78
2023/07/16 02:54:26;;;;;;;2.22;1.83;;;;;;;;;;4999698;28;20025;-77
2023/07/16 02:56:52;;;;;;;2.92;2.00;;;;;;;;;;4998357;28;20659;-78
2023/07/16 02:59:17;;;;;;;1.88;1.70;;;;;;;;;;4997048;28;20025;-77
2023/07/16 03:01:43;;;;;;;2.17;1.98;;;;;;;;;;4996641;28;20512;-77
2023/07/16 03:04:08;;;;;;;1.73;1.63;;;;;;;;;;5000636;28;20022;-76
2023/07/16 03:06:34;;;;;;;2.20;1.48;;;;;;;;;;4998365;28;20037;-76
2023/07/16 03:08:59;;;;;;;2.75;1.63;;;;;;;;;;4999334;28;20022;-76
2023/07/16 03:11:25;;;;;;;1.65;1.50;;;;;;;;;;5001929;28;20470;-77
2023/07/16 03:13:50;;;;;;;2.33;1.77;;;;;;;;;;5000074;28;20030;-77
2023/07/16 03:16:16;;;;;;;2.67;1.92;;;;;;;;;;5000887;28;20053;-77
2023/07/16 03:18:41;;;;;;;2.60;1.77;;;;;;;;;;4998281;28;20018;-76
2023/07/16 03:21:06;;;;;;;1.80;1.70;;;;;;;;;;4997364;28;20037;-76
2023/07/16 03:23:32;;;;;;;1.95;1.60;;;;;;;;;;4997990;28;20029;-75
2023/07/16 03:25:57;;;;;;;3.85;2.00;;;;;;;;;;4998055;28;20487;-74
2023/07/16 03:28:23;;;;;;;2.95;1.80;;;;;;;;;;4998291;28;20029;-75
2023/07/16 03:30:50;;;;;;;1.85;1.40;;;;;;;;;;4995001;28;20065;-75
2023/07/16 03:33:15;;;;;;;1.80;1.70;;;;;;;;;;5001990;28;20712;-75
2023/07/16 03:35:45;;;;;;;1.95;1.60;;;;;;;;;;4995817;28;20029;-75
2023/07/16 03:38:11;;;;;;;2.50;1.70;;;;;;;;;;4997011;28;20092;-75
2023/07/16 03:40:37;;;;;;;1.60;1.50;;;;;;;;;;4996611;28;20025;-75
2023/07/16 03:43:03;;;;;;;2.58;1.58;;;;;;;;;;4994000;28;20026;-75
2023/07/16 03:45:28;;;;;;;1.33;1.23;;;;;;;;;;4988961;28;20088;-75
2023/07/16 03:47:53;;;;;;;3.63;1.70;;;;;;;;;;4996247;28;20034;-75
2023/07/16 03:50:19;;;;;;;2.13;1.70;;;;;;;;;;4991859;28;20042;-75
2023/07/16 03:52:44;;;;;;;3.05;1.67;;;;;;;;;;4995966;28;20057;-75
2023/07/16 03:55:10;;;;;;;1.60;1.40;;;;;;;;;;4994785;28;20037;-76
2023/07/16 03:57:36;;;;;;;3.55;1.80;;;;;;;;;;4999935;28;20034;-75
2023/07/16 04:00:09;;;;;;;2.05;1.30;;;;;;;;;;4995950;28;20117;-76
2023/07/16 04:02:35;;;;;;;4.18;1.88;;;;;;;;;;4994927;28;20061;-76
2023/07/16 04:05:02;;;;;;;1.70;1.60;;;;;;;;;;5001546;28;20022;-76
2023/07/16 04:07:27;;;;;;;1.70;1.60;;;;;;;;;;4993839;28;20068;-76
2023/07/16 04:09:53;;;;;;;4.85;1.52;;;;;;;;;;4995545;28;20026;-76
2023/07/16 04:12:18;;;;;;;1.90;1.70;;;;;;;;;;4999366;28;20452;-75
2023/07/16 04:14:44;;;;;;;2.22;1.48;;;;;;;;;;4998033;28;20022;-75
2023/07/16 04:17:09;;;;;;;2.42;1.58;;;;;;;;;;4999281;28;20723;-74
2023/07/16 04:19:35;;;;;;;2.17;1.55;;;;;;;;;;4994091;28;20504;-75
2023/07/16 04:22:01;;;;;;;2.55;1.73;;;;;;;;;;4996068;28;20064;-75
2023/07/16 04:24:29;;;;;;;2.05;1.30;;;;;;;;;;4997072;28;20042;-75
2023/07/16 04:26:55;;;;;;;1.67;1.27;;;;;;;;;;4996081;28;20222;-75
2023/07/16 04:29:20;;;;;;;3.47;1.33;;;;;;;;;;4993474;28;20026;-74
2023/07/16 04:31:46;;;;;;;2.00;1.33;;;;;;;;;;4992343;28;20034;-75
2023/07/16 04:34:11;;;;;;;2.70;1.40;;;;;;;;;;4997191;28;20034;-74
2023/07/16 04:36:37;;;;;;;1.23;1.10;;;;;;;;;;5000186;28;20021;-75
2023/07/16 04:39:03;;;;;;;3.25;1.70;;;;;;;;;;5001992;28;20018;-75
2023/07/16 04:41:28;;;;;;;2.78;1.30;;;;;;;;;;5000017;28;20022;-74
2023/07/16 04:43:54;;;;;;;3.53;1.48;;;;;;;;;;4997275;28;20625;-74
2023/07/16 04:46:19;;;;;;;1.27;1.15;;;;;;;;;;5003321;28;20033;-74
2023/07/16 04:48:44;;;;;;;1.42;1.33;;;;;;;;;;5000586;28;20383;-74
2023/07/16 04:51:10;;;;;;;1.90;1.20;;;;;;;;;;5000306;28;20030;-74
2023/07/16 04:53:35;;;;;;;2.00;1.15;;;;;;;;;;5003408;28;20064;-74
2023/07/16 04:56:01;;;;;;;1.42;1.20;;;;;;;;;;5003099;28;20645;-74
2023/07/16 04:58:26;;;;;;;2.30;1.42;;;;;;;;;;4998346;28;20080;-73
2023/07/16 05:00:52;;;;;;;1.30;1.20;;;;;;;;;;4998359;28;20390;-74
2023/07/16 05:03:17;;;;;;;4.18;1.35;;;;;;;;;;4997131;28;20052;-74
2023/07/16 05:05:42;;;;;;;2.15;1.33;;;;;;;;;;4999591;28;20018;-74
2023/07/16 05:08:08;;;;;;;2.78;1.13;;;;;;;;;;4998147;28;20022;-73
2023/07/16 05:10:33;;;;;;;2.25;1.00;;;;;;;;;;5001336;28;20029;-75
2023/07/16 05:12:59;;;;;;;3.35;1.13;;;;;;;;;;4997638;28;20109;-74
2023/07/16 05:15:24;;;;;;;1.83;1.20;;;;;;;;;;5002451;28;20018;-74
2023/07/16 05:17:50;;;;;;;1.83;1.50;;;;;;;;;;4999924;28;20482;-73
2023/07/16 05:20:15;;;;;;;1.85;1.30;;;;;;;;;;5005935;28;20041;-74
2023/07/16 05:22:40;;;;;;;1.48;1.10;;;;;;;;;;5008289;28;20049;-75
2023/07/16 05:25:06;;;;;;;2.83;1.38;;;;;;;;;;5001428;28;20037;-75
2023/07/16 05:27:32;;;;;;;1.30;1.20;;;;;;;;;;4995543;28;20025;-74
2023/07/16 05:29:57;;;;;;;2.47;1.10;;;;;;;;;;5000004;28;20037;-75
2023/07/16 05:32:22;;;;;;;1.50;1.00;;;;;;;;;;4997664;28;20034;-75
2023/07/16 05:34:48;;;;;;;1.73;1.55;;;;;;;;;;4997355;28;20026;-75
2023/07/16 05:37:14;;;;;;;1.65;1.17;;;;;;;;;;5000562;28;20076;-75
2023/07/16 05:39:39;;;;;;;2.67;1.30;;;;;;;;;;4995891;28;20093;-75
2023/07/16 05:42:05;;;;;;;2.08;1.08;;;;;;;;;;4998766;28;20113;-75
2023/07/16 05:44:31;;;;;;;1.52;1.23;;;;;;;;;;5005686;28;20033;-76
2023/07/16 05:46:57;;;;;;;2.70;1.08;;;;;;;;;;4999826;28;20026;-75
2023/07/16 05:49:23;;;;;;;4.38;1.17;;;;;;;;;;4997804;28;20507;-76
2023/07/16 05:51:48;;;;;;;1.65;1.08;;;;;;;;;;5000384;28;20025;-75
2023/07/16 05:54:14;;;;;;;2.88;1.00;;;;;;;;;;4997291;28;20030;-75
2023/07/16 05:56:39;;;;;;;1.42;0.90;;;;;;;;;;5000809;28;20028;-75
2023/07/16 05:59:04;;;;;;;1.20;1.10;;;;;;;;;;4995737;28;20530;-74
2023/07/16 06:01:30;;;;;;;1.25;1.00;;;;;;;;;;4995831;28;20077;-75
2023/07/16 06:03:55;;;;;;;1.90;1.15;;;;;;;;;;4994824;28;20519;-75
2023/07/16 06:06:21;;;;;;;1.38;1.00;;;;;;;;;;4996439;28;20554;-75
2023/07/16 06:08:46;;;;;;;2.65;1.10;;;;;;;;;;4999677;28;20033;-74
2023/07/16 06:11:12;;;;;;;2.42;1.15;;;;;;;;;;4991978;28;20026;-76
2023/07/16 06:13:37;;;;;;;2.45;0.90;;;;;;;;;;4997015;28;20487;-74
2023/07/16 06:16:03;;;;;;;1.80;0.80;;;;;;;;;;5000376;28;20049;-76
2023/07/16 06:18:29;;;;;;;1.50;1.00;;;;;;;;;;4998808;28;20034;-74
2023/07/16 06:20:55;;;;;;;1.35;0.85;;;;;;;;;;4998312;28;20696;-76
2023/07/16 06:23:20;;;;;;;1.83;1.10;;;;;;;;;;5000207;28;20032;-75
2023/07/16 06:25:49;;;;;;;1.25;1.10;;;;;;;;;;5002497;28;20414;-77
2023/07/16 06:28:15;;;;;;;1.65;1.08;;;;;;;;;;5001228;28;20478;-75
2023/07/16 06:30:41;;;;;;;4.85;1.30;;;;;;;;;;5001071;28;20030;-76
2023/07/16 06:33:06;;;;;;;4.30;1.10;;;;;;;;;;4998301;28;20032;-74
2023/07/16 06:35:32;;;;;;;1.48;0.98;;;;;;;;;;4995859;28;20109;-75
2023/07/16 06:37:57;;;;;;;1.48;1.08;;;;;;;;;;4997025;28;20036;-74
2023/07/16 06:40:24;;;;;;;1.88;1.00;;;;;;;;;;4997065;28;20088;-76
2023/07/16 06:42:49;;;;;;;1.65;1.10;;;;;;;;;;5005644;28;20033;-77
2023/07/16 06:45:15;;;;;;;1.50;1.08;;;;;;;;;;5004996;28;20109;-77
2023/07/16 06:47:40;;;;;;;3.05;1.00;;;;;;;;;;4996287;28;20025;-77
2023/07/16 06:50:06;;;;;;;2.20;0.98;;;;;;;;;;4996918;28;20031;-77
2023/07/16 06:52:31;;;;;;;4.60;1.10;;;;;;;;;;4997071;28;20109;-77
2023/07/16 06:54:57;;;;;;;1.25;0.95;;;;;;;;;;4997054;28;20037;-75
2023/07/16 06:57:25;;;;;;;1.30;0.88;;;;;;;;;;5001644;28;20030;-74
2023/07/16 06:59:50;;;;;;;2.75;1.15;;;;;;;;;;4998212;28;20029;-75
2023/07/16 07:02:17;;;;;;;3.53;1.30;;;;;;;;;;4997106;28;20029;-76
2023/07/16 07:04:43;;;;;;;2.25;1.02;;;;;;;;;;4998611;28;20045;-76
2023/07/16 07:07:09;;;;;;;0.73;0.70;;;;;;;;;;4996276;28;20045;-75
2023/07/16 07:09:34;;;;;;;1.40;0.90;;;;;;;;;;4999256;28;20025;-75
2023/07/16 07:12:00;;;;;;;1.65;0.90;;;;;;;;;;5000065;28;20030;-75
2023/07/16 07:14:26;;;;;;;1.48;0.88;;;;;;;;;;4995301;28;20026;-74
2023/07/16 07:16:51;;;;;;;3.20;1.30;;;;;;;;;;4997249;28;20048;-76
2023/07/16 07:19:17;;;;;;;1.17;0.80;;;;;;;;;;4997612;28;20058;-76
2023/07/16 07:21:45;;;;;;;1.35;0.90;;;;;;;;;;4997474;28;20109;-75
2023/07/16 07:24:10;;;;;;;2.47;1.13;;;;;;;;;;4997577;28;20502;-76
2023/07/16 07:26:36;;;;;;;2.40;0.90;;;;;;;;;;4993734;28;20053;-75
2023/07/16 07:29:02;;;;;;;1.58;0.93;;;;;;;;;;4994387;28;20018;-75
2023/07/16 07:31:27;;;;;;;3.92;1.40;;;;;;;;;;4997809;28;20033;-74
2023/07/16 07:33:53;;;;;;;4.60;1.25;;;;;;;;;;4995114;28;20038;-75
2023/07/16 07:36:19;;;;;;;1.08;0.90;;;;;;;;;;4999258;28;20026;-75
2023/07/16 07:38:44;;;;;;;2.88;1.25;;;;;;;;;;4998799;28;20076;-75
2023/07/16 07:41:10;;;;;;;1.58;1.17;;;;;;;;;;5000611;28;20132;-75
2023/07/16 07:43:35;;;;;;;2.03;0.80;;;;;;;;;;4996202;28;20044;-76
2023/07/16 07:46:01;;;;;;;1.45;0.85;;;;;;;;;;5002343;28;20398;-76
2023/07/16 07:48:26;;;;;;;2.40;0.98;;;;;;;;;;5004855;28;20030;-75
2023/07/16 07:50:52;;;;;;;3.58;1.60;;;;;;;;;;5005216;28;20037;-76
2023/07/16 07:53:20;;;;;;;1.80;1.05;;;;;;;;;;4998059;28;20479;-76
2023/07/16 07:55:45;;;;;;;3.05;1.00;;;;;;;;;;5000847;28;20045;-76
2023/07/16 07:58:11;;;;;;;2.90;1.20;;;;;;;;;;4997539;28;20053;-76
2023/07/16 08:00:37;;;;;;;1.17;0.98;;;;;;;;;;4997144;28;20474;-76
2023/07/16 08:03:03;;;;;;;3.55;1.25;;;;;;;;;;4999982;28;20402;-78
2023/07/16 08:05:29;;;;;;;2.10;1.08;;;;;;;;;;4997104;28;20672;-76
2023/07/16 08:07:55;;;;;;;1.55;0.80;;;;;;;;;;4998274;28;20030;-76
2023/07/16 08:10:21;;;;;;;1.73;0.90;;;;;;;;;;4996184;28;20021;-76
2023/07/16 08:12:46;;;;;;;1.98;1.15;;;;;;;;;;5004566;28;20032;-76
2023/07/16 08:15:15;;;;;;;3.15;1.23;;;;;;;;;;4999038;28;20129;-75
2023/07/16 08:17:45;;;;;;;2.65;1.17;;;;;;;;;;5009936;28;20025;-75
2023/07/16 08:20:11;;;;;;;1.90;0.98;;;;;;;;;;5005273;28;20075;-75
2023/07/16 08:22:37;;;;;;;2.53;1.45;;;;;;;;;;5002487;28;20033;-75
2023/07/16 08:25:03;;;;;;;2.85;1.30;;;;;;;;;;5000094;28;20033;-74
2023/07/16 08:27:29;;;;;;;2.20;1.05;;;;;;;;;;4998565;28;20034;-76
2023/07/16 08:29:54;;;;;;;1.70;1.17;;;;;;;;;;4996194;28;20037;-75
2023/07/16 08:32:21;;;;;;;3.70;1.33;;;;;;;;;;5004688;28;20029;-75
2023/07/16 08:34:46;;;;;;;2.58;1.05;;;;;;;;;;5020295;28;20025;-75
2023/07/16 08:37:11;;;;;;;1.42;0.93;;;;;;;;;;5005175;28;20168;-75
2023/07/16 08:39:37;;;;;;;4.10;1.20;;;;;;;;;;4999656;28;20034;-74
2023/07/16 08:42:03;;;;;;;2.25;1.10;;;;;;;;;;4999961;28;20381;-75
2023/07/16 08:44:29;;;;;;;4.85;1.38;;;;;;;;;;4991297;28;20014;-75
2023/07/16 08:46:55;;;;;;;3.40;1.30;;;;;;;;;;4995905;28;20561;-75
2023/07/16 08:49:22;;;;;;;3.00;1.48;;;;;;;;;;4997231;28;20100;-75
2023/07/16 08:51:48;;;;;;;2.33;1.15;;;;;;;;;;4997816;28;20030;-75
2023/07/16 08:54:17;;;;;;;1.70;0.90;;;;;;;;;;4997961;28;20101;-75
2023/07/16 08:56:47;;;;;;;1.58;0.90;;;;;;;;;;4999786;28;20105;-75
2023/07/16 08:59:14;;;;;;;3.55;1.30;;;;;;;;;;4997811;28;20024;-75
2023/07/16 09:01:40;;;;;;;2.42;1.23;;;;;;;;;;4997474;28;20049;-75
2023/07/16 09:04:06;;;;;;;2.47;1.35;;;;;;;;;;4998355;28;20398;-75
2023/07/16 09:06:31;;;;;;;2.03;1.05;;;;;;;;;;4998264;28;20626;-75
2023/07/16 09:08:57;;;;;;;3.05;1.25;;;;;;;;;;4999336;28;20654;-75
2023/07/16 09:11:23;;;;;;;3.92;1.67;;;;;;;;;;4997745;28;20037;-78
2023/07/16 09:13:51;;;;;;;2.40;1.30;;;;;;;;;;4997274;28;20022;-75
2023/07/16 09:16:20;;;;;;;1.35;1.23;;;;;;;;;;4996155;28;20045;-77
2023/07/16 09:18:47;;;;;;;1.67;1.20;;;;;;;;;;5002811;28;20026;-76
2023/07/16 09:21:13;;;;;;;2.22;0.95;;;;;;;;;;4996624;28;20031;-76
2023/07/16 09:23:39;;;;;;;3.38;1.25;;;;;;;;;;4991862;28;20044;-76
2023/07/16 09:26:04;;;;;;;4.47;1.25;;;;;;;;;;4991316;28;20026;-76
2023/07/16 09:28:31;;;;;;;1.85;1.30;;;;;;;;;;4998285;23;20507;-73
2023/07/16 09:31:04;;;;;;;6.32;1.20;;;;;;;;;;4984300;28;20022;-74
2023/07/16 09:33:31;;;;;;;1.58;0.98;;;;;;;;;;4984814;28;20039;-72
2023/07/16 09:35:56;;;;;;;3.10;1.15;;;;;;;;;;4984632;28;20037;-72
2023/07/16 09:38:24;;;;;;;2.03;1.20;;;;;;;;;;4974025;28;20462;-72
2023/07/16 09:40:49;;;;;;;2.15;1.13;;;;;;;;;;4969924;28;20022;-74
2023/07/16 09:43:15;;;;;;;2.97;1.60;;;;;;;;;;4967456;28;21140;-74
2023/07/16 09:45:42;;;;;;;2.85;1.05;;;;;;;;;;4961030;28;20195;-72
2023/07/16 09:48:08;;;;;;;4.00;1.23;;;;;;;;;;4962794;28;20030;-73
2023/07/16 09:50:35;;;;;;;3.50;1.40;;;;;;;;;;4966685;28;20030;-73
2023/07/16 09:53:03;;;;;;;2.25;1.20;;;;;;;;;;4952892;28;20607;-73
2023/07/16 09:55:31;;;;;;;5.15;1.35;;;;;;;;;;4970310;28;20028;-73
2023/07/16 09:58:00;;;;;;;2.60;1.40;;;;;;;;;;4968889;28;20443;-72
2023/07/16 10:00:27;;;;;;;3.20;1.20;;;;;;;;;;4973181;28;20026;-73
2023/07/16 10:02:52;;;;;;;3.33;1.40;;;;;;;;;;4956362;28;20035;-73
2023/07/16 10:05:23;;;;;;;2.03;1.20;;;;;;;;;;4965731;28;20654;-72
2023/07/16 10:07:58;;;;;;;1.45;1.30;;;;;;;;;;4968328;28;20023;-72
2023/07/16 10:10:37;;;;;;;2.92;1.10;;;;;;;;;;4973340;28;20060;-73
2023/07/16 10:13:03;;;;;;;1.77;0.90;;;;;;;;;;4970228;28;20330;-72
2023/07/16 10:15:29;;;;;;;1.00;0.90;;;;;;;;;;4971184;28;20189;-72
2023/07/16 10:17:55;;;;;;;1.55;1.30;;;;;;;;;;4968665;28;20070;-74
2023/07/16 10:20:32;;;;;;;1.45;1.10;;;;;;;;;;4966469;28;20034;-72
2023/07/16 10:22:58;;;;;;;2.33;1.33;;;;;;;;;;4966788;28;20727;-73
2023/07/16 10:25:26;;;;;;;2.78;1.23;;;;;;;;;;4970428;28;20039;-75
2023/07/16 10:27:52;;;;;;;6.28;1.38;;;;;;;;;;4968676;28;20081;-73
2023/07/16 10:30:19;;;;;;;1.55;0.88;;;;;;;;;;4969830;28;20066;-72
2023/07/16 10:32:44;;;;;;;3.10;1.48;;;;;;;;;;4963496;28;20193;-72
2023/07/16 10:35:10;;;;;;;2.47;1.20;;;;;;;;;;4967968;28;20586;-72
2023/07/16 10:37:37;;;;;;;3.00;1.50;;;;;;;;;;4964498;28;20845;-74
2023/07/16 10:40:03;;;;;;;1.45;0.90;;;;;;;;;;4964711;28;20035;-73
2023/07/16 10:42:30;;;;;;;4.25;1.48;;;;;;;;;;4959632;28;20515;-73
2023/07/16 10:45:00;;;;;;;1.98;1.20;;;;;;;;;;4969236;28;20027;-73
2023/07/16 10:47:33;;;;;;;4.15;1.63;;;;;;;;;;4966000;28;20030;-74
2023/07/16 10:49:59;;;;;;;2.05;1.23;;;;;;;;;;4970143;28;20031;-72
2023/07/16 10:52:25;;;;;;;3.05;1.50;;;;;;;;;;4961978;28;20076;-73
2023/07/16 10:55:00;;;;;;;4.07;1.65;;;;;;;;;;4970241;28;20049;-73
2023/07/16 10:57:27;;;;;;;5.78;1.23;;;;;;;;;;4969706;28;20030;-73
2023/07/16 10:59:56;;;;;;;4.28;1.35;;;;;;;;;;4971972;28;20542;-74
2023/07/16 11:02:23;;;;;;;2.92;1.27;;;;;;;;;;4967391;28;20037;-73
2023/07/16 11:04:49;;;;;;;6.28;4.20;;;;;;;;;;4969270;28;20026;-74
2023/07/16 11:07:15;;;;;;;58.05;47.55;;;;;;;;;;4968243;28;20058;-74
2023/07/16 11:09:45;;;;;;;4.15;1.50;;;;;;;;;;4978263;28;20042;-74
2023/07/16 11:12:12;;;;;;;1.75;1.42;;;;;;;;;;4974611;28;20035;-72
2023/07/16 11:14:39;;;;;;;2.97;1.27;;;;;;;;;;4978827;28;20034;-73
2023/07/16 11:17:07;;;;;;;2.85;1.77;;;;;;;;;;4969368;28;20037;-73
2023/07/16 11:19:33;;;;;;;1.70;1.60;;;;;;;;;;4972591;28;20023;-72
2023/07/16 11:22:00;;;;;;;3.67;1.75;;;;;;;;;;4969687;28;20662;-75
2023/07/16 11:24:27;;;;;;;2.35;1.65;;;;;;;;;;4973751;28;20114;-73
2023/07/16 11:26:54;;;;;;;2.28;2.00;;;;;;;;;;4976777;28;20030;-73
2023/07/16 11:29:19;;;;;;;4.93;2.92;;;;;;;;;;4973820;28;20026;-73
2023/07/16 11:31:50;;;;;;;24.00;21.77;;;;;;;;;;4973539;28;20033;-75
2023/07/16 11:34:15;;;;;;;154.38;137.57;;;;;;;;;;4971657;28;20038;-73
2023/07/16 11:36:41;;;;;;;14.88;12.13;;;;;;;;;;4970393;28;20023;-74
2023/07/16 11:39:07;;;;;;;42.80;38.17;;;;;;;;;;4972895;28;20030;-73
2023/07/16 11:41:32;;;;;;;62.38;54.78;;;;;;;;;;4969589;28;20097;-73
2023/07/16 11:44:07;;;;;;;232.77;186.63;;;;;;;;;;4975381;28;20071;-74
2023/07/16 11:46:33;;;;;;;30.38;25.60;;;;;;;;;;4976843;28;20034;-73
2023/07/16 11:49:00;;;;;;;17.80;14.43;;;;;;;;;;4975134;28;20023;-74
2023/07/16 11:51:26;;;;;;;35.17;27.80;;;;;;;;;;4977796;28;20018;-73
2023/07/16 11:53:51;;;;;;;7.60;6.28;;;;;;;;;;4988839;28;20049;-71
2023/07/16 11:56:16;;;;;;;29.88;24.10;;;;;;;;;;4982877;28;20034;-74
2023/07/16 11:58:42;;;;;;;4.07;1.98;;;;;;;;;;4979851;28;20030;-71
2023/07/16 12:01:07;;;;;;;3.25;2.08;;;;;;;;;;4977439;28;20105;-73
2023/07/16 12:03:33;;;;;;;2.83;2.30;;;;;;;;;;4972579;28;20037;-75
2023/07/16 12:05:58;;;;;;;2.72;1.60;;;;;;;;;;4973387;28;20023;-73
2023/07/16 12:08:24;;;;;;;4.45;1.90;;;;;;;;;;4981253;28;20026;-74
2023/07/16 12:10:49;;;;;;;4.03;2.03;;;;;;;;;;4982248;28;20045;-74
2023/07/16 12:13:14;;;;;;;2.72;1.83;;;;;;;;;;4978932;28;20021;-74
2023/07/16 12:15:40;;;;;;;3.58;1.70;;;;;;;;;;4979208;28;20116;-74
2023/07/16 12:18:05;;;;;;;3.60;1.80;;;;;;;;;;4974835;28;20019;-72
2023/07/16 12:20:31;;;;;;;3.45;1.90;;;;;;;;;;4973707;28;20022;-74
2023/07/16 12:22:56;;;;;;;1.90;1.70;;;;;;;;;;4976824;28;20097;-74
2023/07/16 12:25:21;;;;;;;2.72;1.70;;;;;;;;;;4979571;28;20030;-73
2023/07/16 12:27:47;;;;;;;2.38;1.75;;;;;;;;;;4977700;28;20041;-72
2023/07/16 12:30:12;;;;;;;3.28;1.85;;;;;;;;;;4979641;28;20037;-73
2023/07/16 12:32:38;;;;;;;2.92;2.05;;;;;;;;;;4977365;28;20038;-73
2023/07/16 12:35:04;;;;;;;3.60;2.00;;;;;;;;;;4971451;28;20030;-71
2023/07/16 12:37:30;;;;;;;3.33;1.70;;;;;;;;;;4971768;28;20029;-72
2023/07/16 12:39:55;;;;;;;4.50;1.95;;;;;;;;;;4980196;28;20030;-72
2023/07/16 12:42:21;;;;;;;2.58;1.75;;;;;;;;;;4981005;28;20038;-74
2023/07/16 12:44:46;;;;;;;3.80;1.80;;;;;;;;;;4978027;28;20097;-74
2023/07/16 12:47:12;;;;;;;2.25;2.00;;;;;;;;;;4974116;28;20082;-72
2023/07/16 12:49:37;;;;;;;2.58;2.00;;;;;;;;;;4973728;28;20026;-74
2023/07/16 12:52:03;;;;;;;4.68;2.10;;;;;;;;;;4974379;28;20403;-73
2023/07/16 12:54:28;;;;;;;2.63;1.85;;;;;;;;;;4981759;28;20023;-72
2023/07/16 12:56:54;;;;;;;2.78;1.83;;;;;;;;;;4972713;28;20041;-72
2023/07/16 12:59:20;;;;;;;2.85;1.70;;;;;;;;;;4976857;28;20069;-74
2023/07/16 13:01:45;;;;;;;3.33;1.77;;;;;;;;;;4977112;28;20030;-73
2023/07/16 13:04:11;;;;;;;5.03;1.95;;;;;;;;;;4973783;28;20023;-74
2023/07/16 13:06:36;;;;;;;1.70;1.60;;;;;;;;;;4974087;28;20022;-74
2023/07/16 13:09:02;;;;;;;2.75;1.90;;;;;;;;;;4977359;28;20030;-72
2023/07/16 13:11:27;;;;;;;3.65;1.98;;;;;;;;;;4972228;28;20138;-73
2023/07/16 13:13:53;;;;;;;2.40;1.88;;;;;;;;;;4975838;28;20484;-74
2023/07/16 13:16:18;;;;;;;2.33;1.73;;;;;;;;;;4973309;28;20030;-71
2023/07/16 13:18:44;;;;;;;2.22;1.80;;;;;;;;;;4969887;28;20034;-74
2023/07/16 13:21:09;;;;;;;1.92;1.67;;;;;;;;;;4971724;28;20067;-73
2023/07/16 13:23:35;;;;;;;2.67;1.90;;;;;;;;;;4973459;28;20053;-73
2023/07/16 13:26:01;;;;;;;3.53;1.90;;;;;;;;;;4971757;28;20027;-72
2023/07/16 13:28:26;;;;;;;2.72;1.80;;;;;;;;;;4972758;28;21531;-74
2023/07/16 13:30:52;;;;;;;4.03;2.00;;;;;;;;;;4975126;28;20030;-73
2023/07/16 13:33:18;;;;;;;2.95;2.00;;;;;;;;;;4973309;28;20015;-73
2023/07/16 13:35:44;;;;;;;3.60;2.22;;;;;;;;;;4978330;28;20034;-71
2023/07/16 13:38:09;;;;;;;3.53;1.80;;;;;;;;;;4982240;28;20030;-70
2023/07/16 13:40:34;;;;;;;3.58;1.90;;;;;;;;;;4981936;28;20029;-74
2023/07/16 13:43:00;;;;;;;2.72;1.50;;;;;;;;;;4977098;28;20042;-74
2023/07/16 13:45:25;;;;;;;3.42;1.90;;;;;;;;;;4962964;28;20026;-74
2023/07/16 13:47:52;;;;;;;3.38;2.10;;;;;;;;;;4972462;28;20364;-73
2023/07/16 13:50:18;;;;;;;2.80;1.85;;;;;;;;;;4976897;28;20031;-73
2023/07/16 13:52:44;;;;;;;3.20;2.00;;;;;;;;;;4976019;28;20038;-73
2023/07/16 13:55:10;;;;;;;4.15;1.88;;;;;;;;;;4973148;28;20037;-71
2023/07/16 13:57:35;;;;;;;2.65;1.85;;;;;;;;;;4978490;28;20074;-74
2023/07/16 14:00:00;;;;;;;3.92;1.92;;;;;;;;;;4974217;28;20598;-74
2023/07/16 14:02:26;;;;;;;3.38;2.35;;;;;;;;;;4972478;28;20026;-72
2023/07/16 14:04:51;;;;;;;2.42;1.67;;;;;;;;;;4976059;28;20027;-74
2023/07/16 14:07:17;;;;;;;3.45;2.22;;;;;;;;;;4981724;28;20037;-73
2023/07/16 14:09:42;;;;;;;3.40;1.80;;;;;;;;;;4978115;28;20475;-74
2023/07/16 14:12:08;;;;;;;3.03;2.17;;;;;;;;;;4980420;28;20022;-73
2023/07/16 14:14:33;;;;;;;4.22;2.17;;;;;;;;;;4979315;28;20374;-71
2023/07/16 14:16:58;;;;;;;3.55;2.15;;;;;;;;;;4976550;28;20026;-74
2023/07/16 14:19:24;;;;;;;2.33;1.83;;;;;;;;;;4976341;28;20034;-73
2023/07/16 14:21:49;;;;;;;3.13;2.10;;;;;;;;;;4985354;28;20515;-73
2023/07/16 14:24:15;;;;;;;5.53;2.33;;;;;;;;;;4976517;28;20019;-73
2023/07/16 14:26:40;;;;;;;3.75;1.80;;;;;;;;;;4974796;28;20499;-71
2023/07/16 14:29:14;;;;;;;3.03;1.90;;;;;;;;;;5099897;27;21073;-75
2023/07/16 14:31:39;;;;;;;2.42;1.77;;;;;;;;;;5106564;28;20030;-75
2023/07/16 14:34:04;;;;;;;3.20;1.95;;;;;;;;;;5110409;27;20566;-74
2023/07/16 14:36:30;;;;;;;2.50;1.80;;;;;;;;;;5103598;28;20016;-75